NZAA Airport Information

Runway Information
Runway 05L Length 10197 ft width 148 ft
Elevation 15 ft Threshold 1148 ft Heading 71
Runway 23R Length 10197 ft Width 148 ft
Elevation 22 ft Threshold 1542 ft Heading 251
Runway 05R Length 11926 ft width 148 ft
Elevation 15 ft Threshold 1125 ft Heading 72
Runway 23L Length 11926 ft Width 148 ft
Elevation 23 ft Threshold 0 ft Heading 252
Airport Frequencies
Type APP Name APP Frequency 124.3 MHZ
Type ATIS Name ATIS Frequency 127.8 MHZ
Type CLD Name CLNC DEL Frequency 128.2 MHZ
Type GND Name GND Frequency 121.9 MHZ
Type TWR Name TWR Frequency 118.7 MHZ
Airport Navaids
Type VOR-DME Name Auckland Frequency 114800 KHZ
Type NDB Name Whitford Frequency 334 KHZ
Type NDB Name Westpoint Frequency 398 KHZ
Airport Weather Information & NOTAM
ADDS - METARS form results

(0427 UTC 18 July 2018)
 
METAR text: NZAA 180400Z AUTO 24003KT 9999 FEW037/// OVC048/// 14/12 Q1014 NOSIG
Conditions at: NZAA (AUCKLAND INTL AR, NZ) observed 0400 UTC 18 July 2018
Temperature: 14.0°C (57°F)
Dewpoint: 12.0°C (54°F) [RH = 88%]
Pressure (altimeter): 29.94 inches Hg (1014.0 mb)
Winds: from the WSW (240 degrees) at 3 MPH (3 knots; 1.6 m/s)
Visibility: 6 or more miles (10+ km)
Ceiling: 4800 feet AGL
Clouds: few clouds at 3700 feet AGL
overcast cloud deck at 4800 feet AGL
Weather: no significant weather observed at this time

METAR text: NZAA 180330Z AUTO 18002KT 9999 FEW041/// OVC050/// 13/11 Q1014 NOSIG
Conditions at: NZAA (AUCKLAND INTL AR, NZ) observed 0330 UTC 18 July 2018
Temperature: 13.0°C (55°F)
Dewpoint: 11.0°C (52°F) [RH = 88%]
Pressure (altimeter): 29.94 inches Hg (1014.0 mb)
Winds: from the S (180 degrees) at 2 MPH (2 knots; 1.0 m/s)
Visibility: 6 or more miles (10+ km)
Ceiling: 5000 feet AGL
Clouds: few clouds at 4100 feet AGL
overcast cloud deck at 5000 feet AGL
Weather: no significant weather observed at this time